sensor_id;sensor_type;location;lat;lon;timestamp;pressure;altitude;pressure_sealevel;temperature;humidity
29825;BME280;16713;52.916;12.834;2022-12-13T00:00:56;100664.91;;;-0.05;65.83
29825;BME280;16713;52.916;12.834;2022-12-13T00:03:22;100649.84;;;-0.06;65.64
29825;BME280;16713;52.916;12.834;2022-12-13T00:05:49;100657.19;;;-0.17;67.08
29825;BME280;16713;52.916;12.834;2022-12-13T00:08:15;100654.94;;;-0.05;66.12
29825;BME280;16713;52.916;12.834;2022-12-13T00:10:42;100652.19;;;0.00;65.53
29825;BME280;16713;52.916;12.834;2022-12-13T00:13:08;100649.72;;;-0.25;66.80
29825;BME280;16713;52.916;12.834;2022-12-13T00:15:35;100649.00;;;-0.30;66.70
29825;BME280;16713;52.916;12.834;2022-12-13T00:18:01;100657.53;;;-0.23;66.35
29825;BME280;16713;52.916;12.834;2022-12-13T00:20:28;100648.94;;;-0.25;67.35
29825;BME280;16713;52.916;12.834;2022-12-13T00:22:54;100649.72;;;-0.25;67.37
29825;BME280;16713;52.916;12.834;2022-12-13T00:25:21;100641.31;;;-0.18;66.80
29825;BME280;16713;52.916;12.834;2022-12-13T00:27:47;100639.53;;;-0.28;67.12
29825;BME280;16713;52.916;12.834;2022-12-13T00:30:14;100646.75;;;-0.23;66.19
29825;BME280;16713;52.916;12.834;2022-12-13T00:32:40;100646.53;;;-0.27;66.94
29825;BME280;16713;52.916;12.834;2022-12-13T00:35:07;100650.63;;;-0.34;67.44
29825;BME280;16713;52.916;12.834;2022-12-13T00:37:33;100644.66;;;-0.31;67.21
29825;BME280;16713;52.916;12.834;2022-12-13T00:40:00;100645.25;;;-0.34;67.38
29825;BME280;16713;52.916;12.834;2022-12-13T00:42:26;100642.56;;;-0.34;67.86
29825;BME280;16713;52.916;12.834;2022-12-13T00:44:53;100637.72;;;-0.37;67.30
29825;BME280;16713;52.916;12.834;2022-12-13T00:47:19;100638.22;;;-0.30;66.53
29825;BME280;16713;52.916;12.834;2022-12-13T00:49:47;100641.84;;;-0.45;68.08
29825;BME280;16713;52.916;12.834;2022-12-13T00:52:13;100642.09;;;-0.41;68.26
29825;BME280;16713;52.916;12.834;2022-12-13T00:54:40;100639.41;;;-0.41;67.63
29825;BME280;16713;52.916;12.834;2022-12-13T00:57:07;100640.19;;;-0.41;68.02
29825;BME280;16713;52.916;12.834;2022-12-13T00:59:33;100634.47;;;-0.34;68.08
29825;BME280;16713;52.916;12.834;2022-12-13T01:01:59;100635.13;;;-0.47;68.04
29825;BME280;16713;52.916;12.834;2022-12-13T01:04:26;100636.19;;;-0.43;67.36
29825;BME280;16713;52.916;12.834;2022-12-13T01:06:52;100630.19;;;-0.35;67.67
29825;BME280;16713;52.916;12.834;2022-12-13T01:09:22;100638.91;;;-0.48;68.24
29825;BME280;16713;52.916;12.834;2022-12-13T01:11:56;100636.75;;;-0.46;68.20
29825;BME280;16713;52.916;12.834;2022-12-13T01:14:23;100638.53;;;-0.37;68.17
29825;BME280;16713;52.916;12.834;2022-12-13T01:16:49;100633.50;;;-0.43;67.81
29825;BME280;16713;52.916;12.834;2022-12-13T01:19:16;100622.72;;;-0.43;68.10
29825;BME280;16713;52.916;12.834;2022-12-13T01:21:42;100620.84;;;-0.43;68.08
29825;BME280;16713;52.916;12.834;2022-12-13T01:24:09;100628.28;;;-0.35;68.27
29825;BME280;16713;52.916;12.834;2022-12-13T01:26:35;100625.06;;;-0.37;68.52
29825;BME280;16713;52.916;12.834;2022-12-13T01:29:02;100622.66;;;-0.38;68.60
29825;BME280;16713;52.916;12.834;2022-12-13T01:31:30;100624.78;;;-0.35;68.38
29825;BME280;16713;52.916;12.834;2022-12-13T01:33:57;100619.94;;;-0.33;68.26
29825;BME280;16713;52.916;12.834;2022-12-13T01:36:23;100616.41;;;-0.34;68.15
29825;BME280;16713;52.916;12.834;2022-12-13T01:38:54;100623.16;;;-0.36;68.50
29825;BME280;16713;52.916;12.834;2022-12-13T01:41:25;100620.03;;;-0.20;68.99
29825;BME280;16713;52.916;12.834;2022-12-13T01:43:56;100617.81;;;-0.13;68.84
29825;BME280;16713;52.916;12.834;2022-12-13T01:46:26;100619.47;;;-0.17;67.73
29825;BME280;16713;52.916;12.834;2022-12-13T01:51:28;100608.75;;;-0.22;68.09
29825;BME280;16713;52.916;12.834;2022-12-13T01:53:57;100607.97;;;-0.22;68.93
29825;BME280;16713;52.916;12.834;2022-12-13T01:56:30;100605.03;;;-0.26;68.62
29825;BME280;16713;52.916;12.834;2022-12-13T01:58:59;100606.38;;;-0.28;68.58
29825;BME280;16713;52.916;12.834;2022-12-13T02:01:27;100606.63;;;-0.25;67.50
29825;BME280;16713;52.916;12.834;2022-12-13T02:03:54;100608.19;;;-0.19;67.85
29825;BME280;16713;52.916;12.834;2022-12-13T02:06:34;100605.34;;;-0.32;68.42
29825;BME280;16713;52.916;12.834;2022-12-13T02:09:03;100606.22;;;-0.37;68.32
29825;BME280;16713;52.916;12.834;2022-12-13T02:11:32;100602.34;;;-0.26;68.71
29825;BME280;16713;52.916;12.834;2022-12-13T02:13:59;100608.13;;;-0.14;68.83
29825;BME280;16713;52.916;12.834;2022-12-13T02:19:28;100613.00;;;-0.16;68.22
29825;BME280;16713;52.916;12.834;2022-12-13T02:22:59;100611.66;;;-0.18;68.14
29825;BME280;16713;52.916;12.834;2022-12-13T02:30:24;100604.06;;;-0.11;68.95
29825;BME280;16713;52.916;12.834;2022-12-13T02:33:21;100613.28;;;-0.17;67.64
29825;BME280;16713;52.916;12.834;2022-12-13T02:36:05;100609.56;;;-0.21;68.82
29825;BME280;16713;52.916;12.834;2022-12-13T02:38:45;100611.31;;;-0.35;68.77
29825;BME280;16713;52.916;12.834;2022-12-13T02:44:09;100600.94;;;-0.23;69.32
29825;BME280;16713;52.916;12.834;2022-12-13T02:46:51;100615.22;;;-0.23;69.35
29825;BME280;16713;52.916;12.834;2022-12-13T02:49:22;100612.38;;;-0.36;69.16
29825;BME280;16713;52.916;12.834;2022-12-13T02:51:50;100606.56;;;-0.43;69.83
29825;BME280;16713;52.916;12.834;2022-12-13T02:54:17;100612.38;;;-0.36;67.92
29825;BME280;16713;52.916;12.834;2022-12-13T02:56:57;100601.56;;;-0.31;68.39
29825;BME280;16713;52.916;12.834;2022-12-13T02:59:34;100610.69;;;-0.27;68.06
29825;BME280;16713;52.916;12.834;2022-12-13T03:02:15;100610.66;;;-0.22;69.50
29825;BME280;16713;52.916;12.834;2022-12-13T03:05:08;100611.00;;;-0.05;68.05
29825;BME280;16713;52.916;12.834;2022-12-13T03:10:57;100604.94;;;-0.16;68.93
29825;BME280;16713;52.916;12.834;2022-12-13T03:19:00;100585.53;;;-0.41;69.14
29825;BME280;16713;52.916;12.834;2022-12-13T03:21:28;100594.06;;;-0.34;69.02
29825;BME280;16713;52.916;12.834;2022-12-13T03:23:54;100593.53;;;-0.36;69.01
29825;BME280;16713;52.916;12.834;2022-12-13T03:26:24;100594.72;;;-0.47;69.30
29825;BME280;16713;52.916;12.834;2022-12-13T03:28:52;100588.84;;;-0.49;69.32
29825;BME280;16713;52.916;12.834;2022-12-13T03:31:19;100596.94;;;-0.26;69.02
29825;BME280;16713;52.916;12.834;2022-12-13T03:33:45;100596.50;;;-0.38;68.60
29825;BME280;16713;52.916;12.834;2022-12-13T03:36:12;100591.69;;;-0.41;68.67
29825;BME280;16713;52.916;12.834;2022-12-13T03:38:39;100590.22;;;-0.28;69.45
29825;BME280;16713;52.916;12.834;2022-12-13T03:41:15;100583.22;;;-0.29;68.70
29825;BME280;16713;52.916;12.834;2022-12-13T03:43:42;100585.44;;;-0.36;69.31
29825;BME280;16713;52.916;12.834;2022-12-13T03:46:09;100574.88;;;-0.56;68.88
29825;BME280;16713;52.916;12.834;2022-12-13T03:48:36;100572.72;;;-0.54;69.12
29825;BME280;16713;52.916;12.834;2022-12-13T03:51:02;100582.63;;;-0.50;69.90
29825;BME280;16713;52.916;12.834;2022-12-13T03:53:29;100574.84;;;-0.51;68.71
29825;BME280;16713;52.916;12.834;2022-12-13T03:56:01;100573.06;;;-0.37;68.95
29825;BME280;16713;52.916;12.834;2022-12-13T03:58:29;100578.50;;;-0.42;68.86
29825;BME280;16713;52.916;12.834;2022-12-13T04:01:07;100578.06;;;-0.49;68.62
29825;BME280;16713;52.916;12.834;2022-12-13T04:03:36;100564.47;;;-0.39;70.04
29825;BME280;16713;52.916;12.834;2022-12-13T04:06:03;100565.94;;;-0.52;68.69
29825;BME280;16713;52.916;12.834;2022-12-13T04:08:30;100566.97;;;-0.43;68.91
29825;BME280;16713;52.916;12.834;2022-12-13T04:10:57;100557.44;;;-0.35;68.47
29825;BME280;16713;52.916;12.834;2022-12-13T04:13:23;100563.22;;;-0.47;69.41
29825;BME280;16713;52.916;12.834;2022-12-13T04:16:00;100560.19;;;-0.40;69.37
29825;BME280;16713;52.916;12.834;2022-12-13T04:18:27;100558.97;;;-0.29;69.68
29825;BME280;16713;52.916;12.834;2022-12-13T04:20:53;100567.63;;;-0.09;68.57
29825;BME280;16713;52.916;12.834;2022-12-13T04:23:20;100557.63;;;-0.27;68.07
29825;BME280;16713;52.916;12.834;2022-12-13T04:25:46;100557.97;;;-0.33;69.63
29825;BME280;16713;52.916;12.834;2022-12-13T04:28:13;100563.47;;;-0.20;68.72
29825;BME280;16713;52.916;12.834;2022-12-13T04:30:48;100564.31;;;-0.24;69.23
29825;BME280;16713;52.916;12.834;2022-12-13T04:33:20;100555.72;;;-0.26;69.09
29825;BME280;16713;52.916;12.834;2022-12-13T04:35:46;100550.56;;;-0.46;68.60
29825;BME280;16713;52.916;12.834;2022-12-13T04:38:13;100558.31;;;-0.40;69.19
29825;BME280;16713;52.916;12.834;2022-12-13T04:40:39;100555.47;;;-0.53;68.64
29825;BME280;16713;52.916;12.834;2022-12-13T04:43:06;100562.94;;;-0.45;69.08
29825;BME280;16713;52.916;12.834;2022-12-13T04:45:32;100564.31;;;-0.24;68.42
29825;BME280;16713;52.916;12.834;2022-12-13T04:47:59;100566.72;;;-0.46;68.81
29825;BME280;16713;52.916;12.834;2022-12-13T04:50:25;100571.91;;;-0.55;68.79
29825;BME280;16713;52.916;12.834;2022-12-13T04:52:51;100576.81;;;-0.33;69.12
29825;BME280;16713;52.916;12.834;2022-12-13T04:55:18;100574.00;;;-0.47;68.97
29825;BME280;16713;52.916;12.834;2022-12-13T04:57:44;100582.94;;;-0.51;68.85
29825;BME280;16713;52.916;12.834;2022-12-13T05:00:11;100577.78;;;-0.48;69.23
29825;BME280;16713;52.916;12.834;2022-12-13T05:02:39;100572.88;;;-0.46;68.98
29825;BME280;16713;52.916;12.834;2022-12-13T05:05:09;100573.78;;;-0.55;68.84
29825;BME280;16713;52.916;12.834;2022-12-13T05:07:37;100574.97;;;-0.38;68.55
29825;BME280;16713;52.916;12.834;2022-12-13T05:10:09;100571.06;;;-0.50;68.41
29825;BME280;16713;52.916;12.834;2022-12-13T05:12:35;100582.31;;;-0.20;68.63
29825;BME280;16713;52.916;12.834;2022-12-13T05:15:02;100580.72;;;-0.21;68.30
29825;BME280;16713;52.916;12.834;2022-12-13T05:17:28;100570.91;;;-0.35;68.30
29825;BME280;16713;52.916;12.834;2022-12-13T05:19:55;100573.69;;;-0.45;69.31
29825;BME280;16713;52.916;12.834;2022-12-13T05:22:21;100572.41;;;-0.48;69.09
29825;BME280;16713;52.916;12.834;2022-12-13T05:24:48;100572.25;;;-0.38;68.61
29825;BME280;16713;52.916;12.834;2022-12-13T05:27:14;100569.06;;;-0.40;68.92
29825;BME280;16713;52.916;12.834;2022-12-13T05:29:55;100571.97;;;-0.36;68.48
29825;BME280;16713;52.916;12.834;2022-12-13T05:32:36;100567.97;;;-0.39;68.92
29825;BME280;16713;52.916;12.834;2022-12-13T05:35:14;100571.09;;;-0.27;68.32
29825;BME280;16713;52.916;12.834;2022-12-13T05:37:49;100572.44;;;-0.29;69.04
29825;BME280;16713;52.916;12.834;2022-12-13T05:40:23;100570.16;;;-0.41;69.12
29825;BME280;16713;52.916;12.834;2022-12-13T05:42:50;100569.75;;;-0.29;68.93
29825;BME280;16713;52.916;12.834;2022-12-13T05:45:27;100569.84;;;-0.39;68.48
29825;BME280;16713;52.916;12.834;2022-12-13T05:47:53;100566.88;;;-0.38;69.03
29825;BME280;16713;52.916;12.834;2022-12-13T05:50:20;100576.34;;;-0.40;69.24
29825;BME280;16713;52.916;12.834;2022-12-13T05:52:46;100570.72;;;-0.20;68.64
29825;BME280;16713;52.916;12.834;2022-12-13T05:55:13;100575.53;;;-0.41;68.14
29825;BME280;16713;52.916;12.834;2022-12-13T05:57:40;100573.84;;;-0.32;67.73
29825;BME280;16713;52.916;12.834;2022-12-13T06:00:16;100577.94;;;-0.39;69.10
29825;BME280;16713;52.916;12.834;2022-12-13T06:02:55;100578.50;;;-0.42;68.88
29825;BME280;16713;52.916;12.834;2022-12-13T06:05:26;100580.78;;;-0.26;67.43
29825;BME280;16713;52.916;12.834;2022-12-13T06:07:53;100586.84;;;-0.39;68.85
29825;BME280;16713;52.916;12.834;2022-12-13T06:10:23;100591.38;;;-0.34;68.12
29825;BME280;16713;52.916;12.834;2022-12-13T06:12:49;100591.47;;;-0.44;68.33
29825;BME280;16713;52.916;12.834;2022-12-13T06:15:16;100597.09;;;-0.41;69.53
29825;BME280;16713;52.916;12.834;2022-12-13T06:17:48;100590.75;;;-0.55;69.21
29825;BME280;16713;52.916;12.834;2022-12-13T06:20:14;100596.63;;;-0.48;69.08
29825;BME280;16713;52.916;12.834;2022-12-13T06:22:50;100595.28;;;-0.50;68.62
29825;BME280;16713;52.916;12.834;2022-12-13T06:25:17;100598.84;;;-0.55;69.14
29825;BME280;16713;52.916;12.834;2022-12-13T06:27:58;100601.25;;;-0.53;69.46
29825;BME280;16713;52.916;12.834;2022-12-13T06:30:27;100605.44;;;-0.42;69.07
29825;BME280;16713;52.916;12.834;2022-12-13T06:32:53;100605.75;;;-0.44;68.83
29825;BME280;16713;52.916;12.834;2022-12-13T06:35:20;100604.94;;;-0.44;68.31
29825;BME280;16713;52.916;12.834;2022-12-13T06:37:54;100597.91;;;-0.40;68.22
29825;BME280;16713;52.916;12.834;2022-12-13T06:40:27;100598.38;;;-0.33;68.37
29825;BME280;16713;52.916;12.834;2022-12-13T06:42:53;100603.63;;;-0.23;68.19
29825;BME280;16713;52.916;12.834;2022-12-13T06:45:20;100605.16;;;-0.41;68.21
29825;BME280;16713;52.916;12.834;2022-12-13T06:47:46;100608.75;;;-0.50;68.74
29825;BME280;16713;52.916;12.834;2022-12-13T06:50:13;100612.47;;;-0.41;68.94
29825;BME280;16713;52.916;12.834;2022-12-13T06:52:40;100618.53;;;-0.31;67.96
29825;BME280;16713;52.916;12.834;2022-12-13T06:55:07;100623.53;;;-0.43;68.27
29825;BME280;16713;52.916;12.834;2022-12-13T06:57:33;100618.91;;;-0.42;69.18
29825;BME280;16713;52.916;12.834;2022-12-13T07:00:00;100625.06;;;-0.37;67.98
29825;BME280;16713;52.916;12.834;2022-12-13T07:02:28;100634.09;;;-0.51;67.87
29825;BME280;16713;52.916;12.834;2022-12-13T07:04:55;100622.53;;;-0.28;68.94
29825;BME280;16713;52.916;12.834;2022-12-13T07:07:22;100629.38;;;-0.36;68.76
29825;BME280;16713;52.916;12.834;2022-12-13T07:09:50;100630.78;;;-0.43;68.17
29825;BME280;16713;52.916;12.834;2022-12-13T07:12:16;100632.09;;;-0.41;68.41
29825;BME280;16713;52.916;12.834;2022-12-13T07:14:44;100622.06;;;-0.59;68.74
29825;BME280;16713;52.916;12.834;2022-12-13T07:17:11;100637.84;;;-0.52;69.12
29825;BME280;16713;52.916;12.834;2022-12-13T07:19:57;100635.94;;;-0.47;68.98
29825;BME280;16713;52.916;12.834;2022-12-13T07:22:26;100635.69;;;-0.50;68.19
29825;BME280;16713;52.916;12.834;2022-12-13T07:24:53;100631.94;;;-0.49;69.30
29825;BME280;16713;52.916;12.834;2022-12-13T07:27:19;100631.69;;;-0.53;69.34
29825;BME280;16713;52.916;12.834;2022-12-13T07:29:45;100634.91;;;-0.51;68.90
29825;BME280;16713;52.916;12.834;2022-12-13T07:32:12;100631.84;;;-0.44;68.63
29825;BME280;16713;52.916;12.834;2022-12-13T07:34:38;100634.00;;;-0.41;69.41
29825;BME280;16713;52.916;12.834;2022-12-13T07:37:05;100636.19;;;-0.43;68.64
29825;BME280;16713;52.916;12.834;2022-12-13T07:39:31;100642.84;;;-0.12;67.66
29825;BME280;16713;52.916;12.834;2022-12-13T07:41:58;100633.91;;;-0.31;67.55
29825;BME280;16713;52.916;12.834;2022-12-13T07:44:24;100631.81;;;-0.39;68.03
29825;BME280;16713;52.916;12.834;2022-12-13T07:46:51;100632.34;;;-0.37;68.53
29825;BME280;16713;52.916;12.834;2022-12-13T07:49:18;100635.59;;;-0.40;68.48
29825;BME280;16713;52.916;12.834;2022-12-13T07:51:44;100638.06;;;-0.44;68.12
29825;BME280;16713;52.916;12.834;2022-12-13T07:54:11;100633.59;;;-0.58;68.30
29825;BME280;16713;52.916;12.834;2022-12-13T07:56:37;100637.53;;;-0.46;68.64
29825;BME280;16713;52.916;12.834;2022-12-13T07:59:04;100636.25;;;-0.53;67.98
29825;BME280;16713;52.916;12.834;2022-12-13T08:01:31;100642.53;;;-0.63;68.09
29825;BME280;16713;52.916;12.834;2022-12-13T08:04:00;100643.03;;;-0.56;69.33
29825;BME280;16713;52.916;12.834;2022-12-13T08:06:27;100644.13;;;-0.62;69.26
29825;BME280;16713;52.916;12.834;2022-12-13T08:08:55;100646.53;;;-0.60;68.63
29825;BME280;16713;52.916;12.834;2022-12-13T08:11:21;100647.69;;;-0.66;68.75
29825;BME280;16713;52.916;12.834;2022-12-13T08:13:48;100650.34;;;-0.61;69.16
29825;BME280;16713;52.916;12.834;2022-12-13T08:16:14;100651.31;;;-0.52;68.64
29825;BME280;16713;52.916;12.834;2022-12-13T08:18:58;100658.06;;;-0.50;68.52
29825;BME280;16713;52.916;12.834;2022-12-13T08:21:39;100665.03;;;-0.49;68.83
29825;BME280;16713;52.916;12.834;2022-12-13T08:24:26;100657.00;;;-0.54;68.49
29825;BME280;16713;52.916;12.834;2022-12-13T08:26:53;100659.97;;;-0.55;68.23
29825;BME280;16713;52.916;12.834;2022-12-13T08:29:20;100658.69;;;-0.63;68.05
29825;BME280;16713;52.916;12.834;2022-12-13T08:32:02;100661.66;;;-0.64;68.22
29825;BME280;16713;52.916;12.834;2022-12-13T08:34:28;100664.53;;;-0.51;68.68
29825;BME280;16713;52.916;12.834;2022-12-13T08:36:55;100657.09;;;-0.64;68.19
29825;BME280;16713;52.916;12.834;2022-12-13T08:39:30;100662.00;;;-0.71;68.27
29825;BME280;16713;52.916;12.834;2022-12-13T08:42:01;100663.09;;;-0.72;68.39
29825;BME280;16713;52.916;12.834;2022-12-13T08:44:50;100675.41;;;-0.66;68.20
29825;BME280;16713;52.916;12.834;2022-12-13T08:47:22;100659.88;;;-0.74;68.62
29825;BME280;16713;52.916;12.834;2022-12-13T08:49:56;100669.63;;;-0.83;68.81
29825;BME280;16713;52.916;12.834;2022-12-13T08:52:34;100679.81;;;-0.75;69.38
29825;BME280;16713;52.916;12.834;2022-12-13T08:55:06;100678.94;;;-0.65;68.79
29825;BME280;16713;52.916;12.834;2022-12-13T08:57:35;100678.31;;;-0.57;68.98
29825;BME280;16713;52.916;12.834;2022-12-13T09:00:03;100680.69;;;-0.51;68.88
29825;BME280;16713;52.916;12.834;2022-12-13T09:02:30;100675.09;;;-0.59;67.99
29825;BME280;16713;52.916;12.834;2022-12-13T09:05:04;100677.00;;;-0.65;69.54
29825;BME280;16713;52.916;12.834;2022-12-13T09:07:30;100680.50;;;-0.59;69.02
29825;BME280;16713;52.916;12.834;2022-12-13T09:09:57;100681.47;;;-0.50;68.19
29825;BME280;16713;52.916;12.834;2022-12-13T09:12:32;100685.38;;;-0.66;68.24
29825;BME280;16713;52.916;12.834;2022-12-13T09:15:07;100685.47;;;-0.43;67.73
29825;BME280;16713;52.916;12.834;2022-12-13T09:17:48;100683.94;;;-0.54;69.17
29825;BME280;16713;52.916;12.834;2022-12-13T09:20:18;100678.78;;;-0.50;67.85
29825;BME280;16713;52.916;12.834;2022-12-13T09:22:55;100675.50;;;-0.42;68.46
29825;BME280;16713;52.916;12.834;2022-12-13T09:25:28;100678.50;;;-0.49;68.45
29825;BME280;16713;52.916;12.834;2022-12-13T09:28:06;100686.25;;;-0.42;67.54
29825;BME280;16713;52.916;12.834;2022-12-13T09:30:37;100685.22;;;-0.46;67.53
29825;BME280;16713;52.916;12.834;2022-12-13T09:33:04;100680.22;;;-0.58;67.95
29825;BME280;16713;52.916;12.834;2022-12-13T09:35:51;100680.22;;;-0.58;68.43
29825;BME280;16713;52.916;12.834;2022-12-13T09:38:18;100676.44;;;-0.62;67.72
29825;BME280;16713;52.916;12.834;2022-12-13T09:40:46;100680.25;;;-0.63;68.18
29825;BME280;16713;52.916;12.834;2022-12-13T09:43:24;100681.09;;;-0.67;68.99
29825;BME280;16713;52.916;12.834;2022-12-13T09:45:59;100675.66;;;-0.62;68.50
29825;BME280;16713;52.916;12.834;2022-12-13T09:48:38;100676.41;;;-0.57;67.91
29825;BME280;16713;52.916;12.834;2022-12-13T09:51:13;100672.97;;;-0.62;69.08
29825;BME280;16713;52.916;12.834;2022-12-13T09:53:52;100670.84;;;-0.65;69.14
29825;BME280;16713;52.916;12.834;2022-12-13T09:56:21;100671.38;;;-0.68;68.18
29825;BME280;16713;52.916;12.834;2022-12-13T09:58:53;100673.75;;;-0.62;68.60
29825;BME280;16713;52.916;12.834;2022-12-13T10:01:22;100676.94;;;-0.55;68.44
29825;BME280;16713;52.916;12.834;2022-12-13T10:03:52;100680.34;;;-0.44;68.25
29825;BME280;16713;52.916;12.834;2022-12-13T10:06:21;100683.31;;;-0.46;69.19
29825;BME280;16713;52.916;12.834;2022-12-13T10:08:52;100682.00;;;-0.48;68.43
29825;BME280;16713;52.916;12.834;2022-12-13T10:11:25;100684.75;;;-0.53;68.17
29825;BME280;16713;52.916;12.834;2022-12-13T10:14:06;100685.00;;;-0.50;67.87
29825;BME280;16713;52.916;12.834;2022-12-13T10:19:35;100680.94;;;-0.52;68.98
29825;BME280;16713;52.916;12.834;2022-12-13T10:22:07;100686.31;;;-0.47;68.88
29825;BME280;16713;52.916;12.834;2022-12-13T10:27:17;100676.34;;;-0.47;68.87
29825;BME280;16713;52.916;12.834;2022-12-13T10:32:48;100666.97;;;-0.54;69.10
29825;BME280;16713;52.916;12.834;2022-12-13T10:38:36;100672.66;;;-0.56;68.27
29825;BME280;16713;52.916;12.834;2022-12-13T10:41:24;100671.72;;;-0.41;67.81
29825;BME280;16713;52.916;12.834;2022-12-13T10:46:33;100670.66;;;-0.45;68.63
29825;BME280;16713;52.916;12.834;2022-12-13T10:49:15;100664.66;;;-0.37;67.98
29825;BME280;16713;52.916;12.834;2022-12-13T10:51:43;100667.28;;;-0.27;68.41
29825;BME280;16713;52.916;12.834;2022-12-13T10:54:24;100665.16;;;-0.30;67.70
29825;BME280;16713;52.916;12.834;2022-12-13T10:56:51;100672.13;;;-0.29;67.45
29825;BME280;16713;52.916;12.834;2022-12-13T11:01:50;100668.09;;;-0.27;66.85
29825;BME280;16713;52.916;12.834;2022-12-13T11:04:26;100659.81;;;-0.35;67.50
29825;BME280;16713;52.916;12.834;2022-12-13T11:06:55;100657.13;;;-0.35;67.80
29825;BME280;16713;52.916;12.834;2022-12-13T11:09:31;100651.63;;;-0.25;68.22
29825;BME280;16713;52.916;12.834;2022-12-13T11:12:17;100653.53;;;-0.26;67.51
29825;BME280;16713;52.916;12.834;2022-12-13T11:15:00;100652.56;;;-0.11;67.36
29825;BME280;16713;52.916;12.834;2022-12-13T11:17:30;100657.06;;;-0.30;67.49
29825;BME280;16713;52.916;12.834;2022-12-13T11:20:02;100650.63;;;-0.34;66.36
29825;BME280;16713;52.916;12.834;2022-12-13T11:22:31;100648.38;;;-0.22;66.17
29825;BME280;16713;52.916;12.834;2022-12-13T11:25:07;100641.97;;;-0.31;66.96
29825;BME280;16713;52.916;12.834;2022-12-13T11:41:54;100634.72;;;-0.31;66.45
29825;BME280;16713;52.916;12.834;2022-12-13T11:44:41;100639.25;;;-0.26;67.61
29825;BME280;16713;52.916;12.834;2022-12-13T11:47:20;100636.06;;;-0.05;67.07
29825;BME280;16713;52.916;12.834;2022-12-13T11:49:50;100640.31;;;0.01;66.76
29825;BME280;16713;52.916;12.834;2022-12-13T11:52:25;100640.66;;;-0.05;66.70
29825;BME280;16713;52.916;12.834;2022-12-13T11:55:03;100639.34;;;-0.08;66.48
29825;BME280;16713;52.916;12.834;2022-12-13T12:00:22;100637.47;;;-0.12;65.52
29825;BME280;16713;52.916;12.834;2022-12-13T12:05:48;100637.34;;;-0.26;65.56
29825;BME280;16713;52.916;12.834;2022-12-13T12:08:52;100637.88;;;-0.24;67.40
29825;BME280;16713;52.916;12.834;2022-12-13T12:14:01;100632.25;;;-0.27;66.46
29825;BME280;16713;52.916;12.834;2022-12-13T12:16:53;100629.59;;;-0.32;66.37
29825;BME280;16713;52.916;12.834;2022-12-13T12:19:34;100631.16;;;-0.26;67.42
29825;BME280;16713;52.916;12.834;2022-12-13T12:25:02;100638.22;;;-0.30;65.99
29825;BME280;16713;52.916;12.834;2022-12-13T12:30:15;100642.50;;;-0.29;67.84
29825;BME280;16713;52.916;12.834;2022-12-13T12:35:40;100640.94;;;-0.35;66.21
29825;BME280;16713;52.916;12.834;2022-12-13T12:38:35;100637.78;;;-0.42;66.96
29825;BME280;16713;52.916;12.834;2022-12-13T12:41:22;100629.69;;;-0.42;67.80
29825;BME280;16713;52.916;12.834;2022-12-13T12:46:40;100629.06;;;-0.34;66.53
29825;BME280;16713;52.916;12.834;2022-12-13T13:02:40;100625.59;;;-0.35;66.93
29825;BME280;16713;52.916;12.834;2022-12-13T13:05:21;100621.28;;;-0.36;67.10
29825;BME280;16713;52.916;12.834;2022-12-13T13:08:02;100625.59;;;-0.35;68.38
29825;BME280;16713;52.916;12.834;2022-12-13T13:10:30;100631.78;;;-0.34;68.21
29825;BME280;16713;52.916;12.834;2022-12-13T13:12:57;100626.09;;;-0.33;67.71
29825;BME280;16713;52.916;12.834;2022-12-13T13:21:37;100627.88;;;-0.23;67.92
29825;BME280;16713;52.916;12.834;2022-12-13T13:29:30;100629.66;;;-0.37;67.10
29825;BME280;16713;52.916;12.834;2022-12-13T13:34:43;100623.72;;;-0.39;68.00
29825;BME280;16713;52.916;12.834;2022-12-13T13:42:23;100631.31;;;-0.41;67.71
29825;BME280;16713;52.916;12.834;2022-12-13T13:50:07;100635.28;;;-0.34;67.15
29825;BME280;16713;52.916;12.834;2022-12-13T14:09:47;100634.78;;;-0.41;67.43
29825;BME280;16713;52.916;12.834;2022-12-13T14:12:38;100628.09;;;-0.43;67.35
29825;BME280;16713;52.916;12.834;2022-12-13T14:15:36;100636.38;;;-0.35;66.23
29825;BME280;16713;52.916;12.834;2022-12-13T14:26:53;100624.34;;;-0.47;65.91
29825;BME280;16713;52.916;12.834;2022-12-13T14:29:37;100630.31;;;-0.50;67.66
29825;BME280;16713;52.916;12.834;2022-12-13T14:32:24;100622.31;;;-0.60;67.85
29825;BME280;16713;52.916;12.834;2022-12-13T14:34:54;100626.38;;;-0.63;66.80
29825;BME280;16713;52.916;12.834;2022-12-13T14:37:39;100621.06;;;-0.73;67.54
29825;BME280;16713;52.916;12.834;2022-12-13T14:42:55;100631.09;;;-0.78;67.32
29825;BME280;16713;52.916;12.834;2022-12-13T14:45:42;100624.38;;;-0.81;67.53
29825;BME280;16713;52.916;12.834;2022-12-13T14:48:13;100623.09;;;-0.89;67.86
29825;BME280;16713;52.916;12.834;2022-12-13T14:50:54;100627.78;;;-1.04;67.20
29825;BME280;16713;52.916;12.834;2022-12-13T14:53:35;100638.59;;;-1.09;67.67
29825;BME280;16713;52.916;12.834;2022-12-13T14:56:08;100630.38;;;-1.33;66.92
29825;BME280;16713;52.916;12.834;2022-12-13T14:58:59;100634.63;;;-1.22;67.30
29825;BME280;16713;52.916;12.834;2022-12-13T15:01:32;100637.94;;;-1.35;67.28
29825;BME280;16713;52.916;12.834;2022-12-13T15:06:47;100630.78;;;-1.59;67.90
29825;BME280;16713;52.916;12.834;2022-12-13T15:09:15;100639.97;;;-1.65;67.10
29825;BME280;16713;52.916;12.834;2022-12-13T15:11:44;100631.44;;;-1.87;67.85
29825;BME280;16713;52.916;12.834;2022-12-13T15:14:17;100634.44;;;-1.99;67.64
29825;BME280;16713;52.916;12.834;2022-12-13T15:16:49;100636.88;;;-2.17;68.56
29825;BME280;16713;52.916;12.834;2022-12-13T15:19:19;100631.28;;;-2.31;68.78
29825;BME280;16713;52.916;12.834;2022-12-13T15:22:02;100635.56;;;-2.35;68.64
29825;BME280;16713;52.916;12.834;2022-12-13T15:24:37;100627.53;;;-2.40;68.46